Time;durP1;ratioP1;P1;durP2;ratioP2;P2;SDS_P1;SDS_P2;PMS_P1;PMS_P2;Temp;Humidity;BMP_temperature;BMP_pressure;BME280_temperature;BME280_humidity;BME280_pressure;Samples;Min_cycle;Max_cycle;Signal;HPM_P1;HPM_P2
2023/01/20 00:00:10;;;;;;;42.90;18.30;;;;;;;-2.43;100.00;98825.70;105048;1301;23162;-31
2023/01/20 00:02:36;;;;;;;53.50;23.00;;;;;;;-2.48;100.00;98825.27;105181;1298;23029;-33
2023/01/20 00:05:02;;;;;;;41.20;14.80;;;;;;;-2.55;100.00;98825.52;105031;1301;25291;-35
2023/01/20 00:07:27;;;;;;;35.50;16.40;;;;;;;-2.64;100.00;98823.30;105227;1298;22660;-36
2023/01/20 00:09:53;;;;;;;39.90;18.00;;;;;;;-2.62;100.00;98829.58;105097;1301;22557;-31
2023/01/20 00:12:19;;;;;;;26.40;12.80;;;;;;;-2.57;100.00;98836.21;105134;1295;22779;-35
2023/01/20 00:14:44;;;;;;;24.70;12.90;;;;;;;-2.48;100.00;98841.09;105184;1299;24381;-32
2023/01/20 00:17:10;;;;;;;27.00;11.60;;;;;;;-2.41;100.00;98846.23;105186;1300;22818;-32
2023/01/20 00:19:36;;;;;;;28.30;11.50;;;;;;;-2.32;100.00;98850.92;105136;1298;22718;-31
2023/01/20 00:22:02;;;;;;;35.30;12.50;;;;;;;-2.27;100.00;98853.36;105064;1301;22787;-32
2023/01/20 00:24:28;;;;;;;45.10;19.20;;;;;;;-2.31;100.00;98855.27;105194;1301;23027;-31
2023/01/20 00:26:53;;;;;;;42.30;18.60;;;;;;;-2.37;100.00;98852.07;105171;1298;24284;-31
2023/01/20 00:29:19;;;;;;;29.60;12.50;;;;;;;-2.41;100.00;98854.13;105069;1301;22560;-31
2023/01/20 00:31:44;;;;;;;31.20;13.80;;;;;;;-2.35;100.00;98854.50;105057;1301;22801;-34
2023/01/20 00:34:10;;;;;;;33.00;15.50;;;;;;;-2.27;100.00;98856.85;105062;1299;22791;-34
2023/01/20 00:36:36;;;;;;;29.30;11.20;;;;;;;-2.21;100.00;98856.50;105080;1301;22624;-35
2023/01/20 00:39:02;;;;;;;29.90;12.80;;;;;;;-2.25;100.00;98852.30;105107;1301;23037;-32
2023/01/20 00:41:28;;;;;;;33.00;13.20;;;;;;;-2.32;100.00;98850.25;104935;1301;22883;-38
2023/01/20 00:43:53;;;;;;;36.70;15.50;;;;;;;-2.33;100.00;98848.20;105199;1301;23164;-33
2023/01/20 00:46:21;;;;;;;42.30;16.40;;;;;;;-2.26;100.00;98853.61;105213;1298;22822;-32
2023/01/20 00:48:47;;;;;;;43.90;17.60;;;;;;;-2.27;100.00;98853.67;105079;1298;24298;-35
2023/01/20 00:51:13;;;;;;;36.20;16.80;;;;;;;-2.32;100.00;98855.90;105020;1301;23020;-34
2023/01/20 00:53:39;;;;;;;31.50;15.80;;;;;;;-2.31;100.00;98865.41;104999;1299;22796;-30
2023/01/20 00:56:05;;;;;;;31.30;13.80;;;;;;;-2.22;100.00;98867.52;105055;1301;22779;-39
2023/01/20 00:58:31;;;;;;;38.80;17.00;;;;;;;-2.20;100.00;98870.41;105058;1300;24276;-34
2023/01/20 01:00:57;;;;;;;35.40;16.20;;;;;;;-2.18;100.00;98872.72;105149;1298;22560;-34
2023/01/20 01:03:23;;;;;;;26.40;13.60;;;;;;;-2.13;100.00;98872.67;105140;1299;22651;-36
2023/01/20 01:05:49;;;;;;;25.80;12.60;;;;;;;-2.12;100.00;98872.23;105105;1301;23033;-31
2023/01/20 01:08:15;;;;;;;28.00;12.30;;;;;;;-2.07;100.00;98876.55;105049;1299;23000;-34
2023/01/20 01:10:40;;;;;;;29.50;14.40;;;;;;;-2.05;100.00;98874.13;105187;1299;23149;-34
2023/01/20 01:13:06;;;;;;;32.20;13.90;;;;;;;-2.04;100.00;98875.20;105038;1301;22832;-33
2023/01/20 01:15:32;;;;;;;35.80;16.00;;;;;;;-2.00;100.00;98878.58;105104;1301;22828;-33
2023/01/20 01:17:58;;;;;;;41.50;18.10;;;;;;;-2.07;100.00;98877.27;105001;1301;22842;-32
2023/01/20 01:20:24;;;;;;;29.70;13.20;;;;;;;-2.16;100.00;98875.05;104979;1301;23286;-34
2023/01/20 01:22:50;;;;;;;41.20;17.40;;;;;;;-2.13;100.00;98868.95;105251;1298;24278;-31
2023/01/20 01:25:15;;;;;;;45.50;19.50;;;;;;;-2.07;100.00;98866.36;105032;1299;22667;-36
2023/01/20 01:27:41;;;;;;;39.40;17.90;;;;;;;-2.13;100.00;98862.83;104935;1301;22750;-30
2023/01/20 01:30:07;;;;;;;50.00;22.30;;;;;;;-2.19;100.00;98862.30;104888;1300;22556;-33
2023/01/20 01:32:33;;;;;;;44.20;20.00;;;;;;;-2.23;100.00;98865.45;105179;1298;23024;-38
2023/01/20 01:34:59;;;;;;;66.80;26.30;;;;;;;-2.32;100.00;98865.33;105106;1301;24226;-35
2023/01/20 01:37:26;;;;;;;87.00;26.90;;;;;;;-2.34;100.00;98869.89;105122;1301;23146;-37
2023/01/20 01:39:52;;;;;;;77.60;28.60;;;;;;;-2.38;100.00;98871.42;104992;1297;22972;-32
2023/01/20 01:42:21;;;;;;;104.70;32.70;;;;;;;-2.41;100.00;98867.97;105130;1301;22927;-31
2023/01/20 01:45:11;;;;;;;108.90;47.50;;;;;;;-2.43;100.00;98863.23;105044;1299;22646;-34
2023/01/20 01:47:43;;;;;;;98.90;41.30;;;;;;;-2.43;100.00;98864.11;105155;1301;22667;-35
2023/01/20 01:50:11;;;;;;;126.10;54.10;;;;;;;-2.41;100.00;98867.61;105002;1301;24325;-31
2023/01/20 01:52:37;;;;;;;86.60;33.60;;;;;;;-2.43;100.00;98864.16;105246;1299;22684;-32
2023/01/20 01:55:03;;;;;;;52.10;21.40;;;;;;;-2.45;100.00;98866.23;105021;1301;22815;-31
2023/01/20 01:57:30;;;;;;;221.20;66.90;;;;;;;-2.53;100.00;98868.46;105148;1298;23007;-31
2023/01/20 01:59:56;;;;;;;89.70;30.00;;;;;;;-2.65;100.00;98869.14;105027;1301;23030;-32
2023/01/20 02:02:22;;;;;;;55.30;22.60;;;;;;;-2.69;100.00;98872.59;105215;1301;24407;-32
2023/01/20 02:04:48;;;;;;;78.40;28.60;;;;;;;-2.70;100.00;98875.48;105083;1298;22637;-34
2023/01/20 02:07:15;;;;;;;66.90;24.20;;;;;;;-2.72;100.00;98882.63;105052;1301;23039;-32
2023/01/20 02:09:41;;;;;;;52.50;21.00;;;;;;;-2.71;100.00;98887.10;105014;1299;25296;-32
2023/01/20 02:12:09;;;;;;;64.80;24.50;;;;;;;-2.68;100.00;98891.25;105042;1295;22609;-33
2023/01/20 02:14:37;;;;;;;78.00;24.00;;;;;;;-2.66;100.00;98891.24;105071;1301;22556;-30
2023/01/20 02:17:32;;;;;;;83.80;25.70;;;;;;;-2.68;100.00;98895.65;105207;1301;24229;-34
2023/01/20 02:20:22;;;;;;;76.40;22.60;;;;;;;-2.72;100.00;98897.73;105008;1298;22641;-35
2023/01/20 02:23:02;;;;;;;69.40;22.70;;;;;;;-2.79;100.00;98897.77;105079;1301;24463;-36
2023/01/20 02:25:47;;;;;;;52.00;17.60;;;;;;;-2.89;100.00;98898.89;105098;1298;22832;-30
2023/01/20 02:28:36;;;;;;;58.00;17.90;;;;;;;-2.94;100.00;98896.17;105147;1299;23033;-30
2023/01/20 02:31:26;;;;;;;57.90;20.80;;;;;;;-2.97;100.00;98892.19;104990;1301;23159;-30
2023/01/20 02:34:08;;;;;;;83.40;25.20;;;;;;;-3.01;100.00;98895.84;105172;1299;22795;-36
2023/01/20 02:36:42;;;;;;;97.30;26.30;;;;;;;-2.99;100.00;98908.52;105031;1299;22779;-31
2023/01/20 02:39:18;;;;;;;82.40;25.40;;;;;;;-3.00;100.00;98918.55;105180;1301;23151;-35
2023/01/20 02:41:56;;;;;;;94.60;24.30;;;;;;;-3.07;100.00;98918.41;105088;1295;26532;-31
2023/01/20 02:44:26;;;;;;;71.30;23.30;;;;;;;-3.14;100.00;98918.27;105094;1299;22801;-33
2023/01/20 02:47:00;;;;;;;61.20;17.20;;;;;;;-3.20;100.00;98916.64;105149;1298;22825;-35
2023/01/20 02:49:29;;;;;;;48.80;15.80;;;;;;;-3.19;100.00;98918.09;105085;1301;22565;-30
2023/01/20 02:52:09;;;;;;;67.50;20.90;;;;;;;-3.16;100.00;98921.77;105029;1301;24284;-30
2023/01/20 02:54:35;;;;;;;74.50;21.50;;;;;;;-3.16;100.00;98922.11;105071;1295;22553;-29
2023/01/20 02:57:03;;;;;;;72.30;20.60;;;;;;;-3.19;100.00;98922.54;105095;1299;22628;-34
2023/01/20 02:59:31;;;;;;;90.40;26.40;;;;;;;-3.25;100.00;98917.94;105086;1299;22660;-33
2023/01/20 03:02:05;;;;;;;66.50;21.00;;;;;;;-3.27;100.00;98919.13;105111;1295;22552;-31
2023/01/20 03:04:35;;;;;;;55.20;17.70;;;;;;;-3.33;100.00;98913.41;105153;1299;22801;-30
2023/01/20 03:07:00;;;;;;;66.20;19.00;;;;;;;-3.38;100.00;98913.98;105034;1298;22707;-30
2023/01/20 03:09:40;;;;;;;58.80;17.40;;;;;;;-3.43;100.00;98910.36;105039;1301;22872;-29
2023/01/20 03:12:10;;;;;;;54.80;14.50;;;;;;;-3.45;100.00;98915.98;105019;1301;22669;-33
2023/01/20 03:14:36;;;;;;;96.40;25.60;;;;;;;-3.46;100.00;98921.66;105122;1299;23168;-36
2023/01/20 03:17:02;;;;;;;107.70;31.40;;;;;;;-3.51;100.00;98928.50;105032;1299;22633;-34
2023/01/20 03:19:28;;;;;;;107.50;27.80;;;;;;;-3.53;100.00;98932.98;104996;1299;24449;-34
2023/01/20 03:21:54;;;;;;;57.20;21.70;;;;;;;-3.49;100.00;98936.97;105129;1298;22657;-34
2023/01/20 03:24:19;;;;;;;79.30;23.30;;;;;;;-3.50;100.00;98936.13;105101;1299;22661;-31
2023/01/20 03:26:45;;;;;;;72.10;20.30;;;;;;;-3.52;100.00;98934.17;105122;1298;22951;-28
2023/01/20 03:29:11;;;;;;;74.90;21.50;;;;;;;-3.56;100.00;98937.08;105023;1301;23160;-31
2023/01/20 03:31:40;;;;;;;67.00;20.20;;;;;;;-3.63;100.00;98936.09;105146;1299;24760;-30
2023/01/20 03:34:11;;;;;;;99.80;28.80;;;;;;;-3.67;100.00;98934.12;105200;1294;22663;-34
2023/01/20 03:36:37;;;;;;;54.10;21.60;;;;;;;-3.69;100.00;98931.50;105176;1296;25364;-30
2023/01/20 03:39:03;;;;;;;69.00;23.10;;;;;;;-3.70;100.00;98931.05;105027;1299;22774;-35
2023/01/20 03:41:45;;;;;;;104.30;25.60;;;;;;;-3.71;100.00;98930.80;105145;1295;22653;-33
2023/01/20 03:44:20;;;;;;;59.50;16.30;;;;;;;-3.77;100.00;98931.52;105075;1301;22562;-30
2023/01/20 03:46:57;;;;;;;59.00;19.60;;;;;;;-3.72;100.00;98937.68;105110;1298;23018;-29
2023/01/20 03:49:47;;;;;;;54.80;19.00;;;;;;;-3.72;100.00;98949.71;105057;1295;25423;-29
2023/01/20 03:52:22;;;;;;;58.50;22.90;;;;;;;-3.66;100.00;98960.48;105061;1299;24458;-34
2023/01/20 03:54:50;;;;;;;37.70;14.50;;;;;;;-3.70;100.00;98967.77;105002;1301;23033;-33
2023/01/20 03:57:18;;;;;;;61.70;20.20;;;;;;;-28.56;79.80;79175.02;104423;1298;1001983;-35
2023/01/20 03:59:44;;;;;;;62.70;22.30;;;;;;;-128.00;-1.00;-1.00;101521;1301;1003429;-28
2023/01/20 04:02:10;;;;;;;65.50;21.40;;;;;;;-128.00;-1.00;-1.00;101435;1301;1004722;-30
2023/01/20 04:04:37;;;;;;;58.10;19.40;;;;;;;-128.00;-1.00;-1.00;101367;1301;1002115;-34
2023/01/20 04:07:04;;;;;;;79.20;25.30;;;;;;;-128.00;-1.00;-1.00;101531;1301;1004478;-30
2023/01/20 04:09:32;;;;;;;159.80;54.30;;;;;;;-128.00;-1.00;-1.00;101456;1301;1002679;-29
2023/01/20 04:11:58;;;;;;;176.30;52.70;;;;;;;-128.00;-1.00;-1.00;101454;1301;1002831;-34
2023/01/20 04:14:23;;;;;;;225.00;81.30;;;;;;;-128.00;-1.00;-1.00;101545;1301;1002821;-29
2023/01/20 04:16:51;;;;;;;143.90;44.90;;;;;;;-128.00;-1.00;-1.00;101412;1301;1003172;-34
2023/01/20 04:19:16;;;;;;;108.90;35.70;;;;;;;-128.00;-1.00;-1.00;101519;1301;1002799;-30
2023/01/20 04:21:48;;;;;;;79.20;30.00;;;;;;;-128.00;-1.00;-1.00;101504;1301;1003513;-29
2023/01/20 04:24:23;;;;;;;74.60;26.30;;;;;;;-128.00;-1.00;-1.00;101477;1301;1003652;-34
2023/01/20 04:26:53;;;;;;;78.60;28.70;;;;;;;-128.00;-1.00;-1.00;101487;1301;1003235;-29
2023/01/20 04:29:19;;;;;;;68.50;25.70;;;;;;;-128.00;-1.00;-1.00;101537;1301;1003920;-37
2023/01/20 04:31:45;;;;;;;90.90;28.10;;;;;;;-128.00;-1.00;-1.00;101518;1301;1002768;-33
2023/01/20 04:34:16;;;;;;;97.60;28.80;;;;;;;-128.00;-1.00;-1.00;101433;1301;1003163;-29
2023/01/20 05:14:55;;;;;;;58.60;22.40;;;;;;;-4.89;100.00;99092.59;97876;1285;2001962;-33
2023/01/20 05:17:22;;;;;;;56.90;21.30;;;;;;;-4.71;100.00;99089.63;102099;1304;1002931;-29
2023/01/20 05:19:48;;;;;;;80.30;26.50;;;;;;;-4.74;100.00;99082.52;104772;1298;22785;-33
2023/01/20 05:22:14;;;;;;;83.20;30.00;;;;;;;-4.82;100.00;99072.06;104620;1302;23296;-33
2023/01/20 05:24:40;;;;;;;64.00;20.10;;;;;;;-4.85;100.00;99057.98;104706;1305;23169;-33
2023/01/20 05:27:06;;;;;;;61.30;22.00;;;;;;;-4.87;100.00;99054.29;104690;1302;23049;-33
2023/01/20 05:29:32;;;;;;;42.70;16.10;;;;;;;-4.87;100.00;99053.95;104661;1301;24160;-33
2023/01/20 05:31:57;;;;;;;46.20;18.10;;;;;;;-4.85;100.00;99050.11;104741;1301;22675;-29
2023/01/20 05:34:23;;;;;;;53.60;20.40;;;;;;;-4.88;100.00;99048.11;104699;1298;22657;-35
2023/01/20 05:36:52;;;;;;;70.40;27.00;;;;;;;-4.96;100.00;99048.43;104728;1302;22645;-33
2023/01/20 05:39:19;;;;;;;50.90;20.20;;;;;;;-4.98;100.00;99046.15;104678;1302;23322;-32
2023/01/20 05:41:45;;;;;;;44.40;17.30;;;;;;;-5.05;100.00;99048.88;104690;1301;22671;-32
2023/01/20 05:44:12;;;;;;;34.90;14.60;;;;;;;-5.09;100.00;99047.81;104780;1301;22670;-33
2023/01/20 05:46:38;;;;;;;50.80;18.80;;;;;;;-5.09;100.00;99045.86;104732;1301;23039;-30
2023/01/20 05:49:04;;;;;;;34.00;14.50;;;;;;;-5.07;100.00;99046.80;104689;1301;24202;-33
2023/01/20 05:51:31;;;;;;;41.40;15.50;;;;;;;-5.06;100.00;99043.90;104720;1298;22997;-29
2023/01/20 05:53:57;;;;;;;50.70;20.00;;;;;;;-5.01;100.00;99050.58;104691;1301;22679;-33
2023/01/20 05:56:22;;;;;;;35.60;14.40;;;;;;;-5.02;100.00;99052.50;104652;1305;24199;-33
2023/01/20 05:58:49;;;;;;;31.40;13.90;;;;;;;-5.06;100.00;99053.69;104691;1305;23320;-34
2023/01/20 06:01:15;;;;;;;47.30;19.90;;;;;;;-5.06;100.00;99056.83;104718;1301;23296;-33
2023/01/20 06:03:41;;;;;;;46.90;15.90;;;;;;;-5.04;100.00;99057.58;104616;1301;24202;-33
2023/01/20 06:06:07;;;;;;;38.60;14.40;;;;;;;-4.97;100.00;99057.77;104781;1302;22682;-31
2023/01/20 06:08:34;;;;;;;34.40;16.00;;;;;;;-4.92;100.00;99064.08;104692;1301;23181;-34
2023/01/20 06:11:00;;;;;;;58.20;21.80;;;;;;;-4.93;100.00;99067.60;104751;1301;23165;-29
2023/01/20 06:13:25;;;;;;;58.40;17.40;;;;;;;-4.98;100.00;99066.38;104704;1301;22672;-33
2023/01/20 06:15:52;;;;;;;52.10;20.90;;;;;;;-5.03;100.00;99059.94;104672;1305;22654;-33
2023/01/20 06:18:19;;;;;;;43.00;15.80;;;;;;;-5.16;100.00;99053.64;104627;1305;24772;-30
2023/01/20 06:20:44;;;;;;;38.80;13.90;;;;;;;-5.22;100.00;99049.36;104668;1301;23148;-29
2023/01/20 06:23:10;;;;;;;35.30;15.50;;;;;;;-5.23;100.00;99046.83;104685;1305;24536;-33
2023/01/20 06:25:37;;;;;;;39.90;17.20;;;;;;;-5.15;100.00;99051.36;104679;1298;23027;-29
2023/01/20 06:28:03;;;;;;;31.00;13.80;;;;;;;-5.23;100.00;99052.26;104678;1305;22615;-32
2023/01/20 06:30:28;;;;;;;37.20;14.70;;;;;;;-5.31;100.00;99053.66;104686;1301;24278;-29
2023/01/20 06:32:56;;;;;;;51.70;19.20;;;;;;;-5.27;100.00;99064.22;104786;1302;24164;-34
2023/01/20 06:35:23;;;;;;;67.30;25.30;;;;;;;-5.27;100.00;99080.24;104662;1298;23136;-30
2023/01/20 06:37:49;;;;;;;76.50;32.30;;;;;;;-5.31;100.00;99106.52;104690;1305;23048;-34
2023/01/20 06:40:15;;;;;;;81.30;27.60;;;;;;;-5.36;100.00;99120.80;104595;1299;22562;-33
2023/01/20 06:42:41;;;;;;;57.10;24.50;;;;;;;-5.37;100.00;99121.23;104663;1301;22793;-34
2023/01/20 06:45:07;;;;;;;96.70;32.30;;;;;;;-5.33;100.00;99118.71;104600;1302;26536;-34
2023/01/20 06:47:33;;;;;;;89.70;29.90;;;;;;;-5.33;100.00;99117.49;104670;1301;22654;-34
2023/01/20 06:49:59;;;;;;;96.50;31.00;;;;;;;-5.33;100.00;99130.58;104678;1305;22656;-35
2023/01/20 06:52:25;;;;;;;61.50;24.20;;;;;;;-5.33;100.00;99145.02;104639;1305;22675;-30
2023/01/20 06:54:50;;;;;;;84.60;31.50;;;;;;;-5.26;100.00;99157.65;104627;1301;22817;-30
2023/01/20 06:57:16;;;;;;;91.20;28.60;;;;;;;-5.22;100.00;99156.90;104669;1305;24251;-31
2023/01/20 06:59:42;;;;;;;102.20;34.60;;;;;;;-5.16;100.00;99152.66;104620;1305;23155;-29
2023/01/20 07:02:10;;;;;;;80.40;32.00;;;;;;;-5.12;100.00;99151.34;104605;1305;23162;-32
2023/01/20 07:04:36;;;;;;;364.00;101.00;;;;;;;-5.07;100.00;99166.19;104618;1303;26606;-33
2023/01/20 07:07:02;;;;;;;586.60;180.10;;;;;;;-5.05;100.00;99174.09;104728;1301;22577;-32
2023/01/20 07:09:28;;;;;;;381.00;106.80;;;;;;;-54.22;59.60;59511.36;103251;1302;1003167;-30
2023/01/20 07:11:54;;;;;;;416.50;116.90;;;;;;;-128.00;-1.00;-1.00;101046;1305;1002978;-33
2023/01/20 07:14:20;;;;;;;299.10;88.70;;;;;;;-128.00;-1.00;-1.00;101205;1305;1003589;-33
2023/01/20 07:16:46;;;;;;;356.70;107.00;;;;;;;-128.00;-1.00;-1.00;101139;1305;1005042;-29
2023/01/20 07:19:13;;;;;;;277.50;88.80;;;;;;;-128.00;-1.00;-1.00;101147;1305;1004664;-34
2023/01/20 07:21:38;;;;;;;204.90;70.70;;;;;;;-128.00;-1.00;-1.00;100846;1305;1002588;-34
2023/01/20 07:24:05;;;;;;;116.60;43.20;;;;;;;-128.00;-1.00;-1.00;101156;1305;1002693;-34
2023/01/20 07:26:31;;;;;;;128.30;44.30;;;;;;;-128.00;-1.00;-1.00;101163;1305;1002476;-30
2023/01/20 07:28:57;;;;;;;106.10;39.50;;;;;;;-128.00;-1.00;-1.00;101128;1305;1002918;-34
2023/01/20 07:31:25;;;;;;;165.50;53.80;;;;;;;-128.00;-1.00;-1.00;101124;1305;1002860;-34
2023/01/20 07:33:50;;;;;;;152.40;49.70;;;;;;;-128.00;-1.00;-1.00;101204;1304;1004332;-30
2023/01/20 07:36:17;;;;;;;128.90;44.30;;;;;;;-128.00;-1.00;-1.00;101053;1305;1004414;-30
2023/01/20 07:38:46;;;;;;;148.60;51.70;;;;;;;-128.00;-1.00;-1.00;101102;1305;1002877;-35
2023/01/20 07:41:14;;;;;;;242.40;77.60;;;;;;;-128.00;-1.00;-1.00;101106;1305;1003478;-35
2023/01/20 07:43:44;;;;;;;257.90;92.10;;;;;;;-128.00;-1.00;-1.00;101212;1305;1003694;-35
2023/01/20 07:46:10;;;;;;;159.40;65.00;;;;;;;-128.00;-1.00;-1.00;101106;1305;1003471;-30
2023/01/20 07:48:37;;;;;;;143.00;49.60;;;;;;;-128.00;-1.00;-1.00;101083;1305;1003516;-31
2023/01/20 07:51:04;;;;;;;161.30;60.90;;;;;;;-128.00;-1.00;-1.00;101180;1305;1004896;-34
2023/01/20 07:53:31;;;;;;;134.70;48.30;;;;;;;-128.00;-1.00;-1.00;101253;1305;1003014;-29
2023/01/20 07:56:05;;;;;;;159.30;53.10;;;;;;;-128.00;-1.00;-1.00;101176;1305;1003411;-29
2023/01/20 07:58:31;;;;;;;92.90;36.40;;;;;;;-128.00;-1.00;-1.00;101036;1304;1003155;-33
2023/01/20 08:00:57;;;;;;;138.70;47.30;;;;;;;-128.00;-1.00;-1.00;101112;1305;1003720;-29
2023/01/20 08:03:24;;;;;;;122.30;45.00;;;;;;;-128.00;-1.00;-1.00;101055;1305;1003106;-33
2023/01/20 08:05:50;;;;;;;138.80;42.40;;;;;;;-128.00;-1.00;-1.00;101153;1298;1002897;-30
2023/01/20 08:08:16;;;;;;;89.70;32.50;;;;;;;-128.00;-1.00;-1.00;101121;1305;1003647;-29
2023/01/20 08:10:42;;;;;;;116.20;39.70;;;;;;;-128.00;-1.00;-1.00;101096;1305;1003468;-29
2023/01/20 08:13:07;;;;;;;230.00;76.50;;;;;;;-128.00;-1.00;-1.00;101115;1305;1003332;-30
2023/01/20 08:15:33;;;;;;;176.30;53.10;;;;;;;-128.00;-1.00;-1.00;101153;1305;1002742;-34
2023/01/20 08:17:59;;;;;;;188.00;56.90;;;;;;;-128.00;-1.00;-1.00;101006;1305;1003235;-33
2023/01/20 08:20:26;;;;;;;215.20;78.20;;;;;;;-128.00;-1.00;-1.00;101183;1305;1003121;-33
2023/01/20 08:22:51;;;;;;;228.40;77.10;;;;;;;-128.00;-1.00;-1.00;101231;1305;1003839;-33
2023/01/20 08:25:17;;;;;;;259.20;90.90;;;;;;;-128.00;-1.00;-1.00;101125;1305;1002741;-31
2023/01/20 08:27:43;;;;;;;236.80;81.70;;;;;;;-128.00;-1.00;-1.00;101109;1305;1003021;-30
2023/01/20 08:30:09;;;;;;;212.20;73.80;;;;;;;-128.00;-1.00;-1.00;101074;1305;1004016;-34
2023/01/20 08:32:34;;;;;;;;;;;;;;;-128.00;-1.00;-1.00;101151;1305;1002481;-31
2023/01/20 08:35:00;;;;;;;209.10;65.00;;;;;;;-128.00;-1.00;-1.00;101124;1305;1003738;-33
2023/01/20 08:37:26;;;;;;;177.10;65.90;;;;;;;-128.00;-1.00;-1.00;101145;1305;1003185;-35
2023/01/20 08:39:51;;;;;;;198.60;69.40;;;;;;;-128.00;-1.00;-1.00;101135;1305;1003456;-32
2023/01/20 08:42:17;;;;;;;162.00;60.10;;;;;;;-128.00;-1.00;-1.00;101029;1305;1003247;-30
2023/01/20 08:44:43;;;;;;;191.50;74.00;;;;;;;-128.00;-1.00;-1.00;101048;1305;1002812;-29
2023/01/20 08:47:09;;;;;;;173.30;69.70;;;;;;;-128.00;-1.00;-1.00;101170;1305;1004146;-30
2023/01/20 08:49:35;;;;;;;203.00;73.90;;;;;;;-128.00;-1.00;-1.00;101115;1305;1003638;-30
2023/01/20 08:52:00;;;;;;;116.00;45.80;;;;;;;-128.00;-1.00;-1.00;101132;1305;1003601;-35
2023/01/20 08:54:28;;;;;;;139.00;56.30;;;;;;;-128.00;-1.00;-1.00;101083;1305;1003287;-36
2023/01/20 08:56:54;;;;;;;106.80;50.00;;;;;;;-128.00;-1.00;-1.00;101044;1288;1002794;-36
2023/01/20 08:59:20;;;;;;;137.70;57.80;;;;;;;-128.00;-1.00;-1.00;101089;1298;1002564;-34
2023/01/20 09:01:46;;;;;;;145.10;60.60;;;;;;;-128.00;-1.00;-1.00;101226;1305;1003856;-33
2023/01/20 09:04:12;;;;;;;120.90;49.50;;;;;;;-128.00;-1.00;-1.00;101060;1305;1003228;-32
2023/01/20 09:06:47;;;;;;;174.30;70.00;;;;;;;-128.00;-1.00;-1.00;101074;1305;1003220;-32
2023/01/20 09:09:13;;;;;;;154.00;62.90;;;;;;;-128.00;-1.00;-1.00;101211;1305;1003491;-32
2023/01/20 09:11:39;;;;;;;141.10;60.60;;;;;;;-128.00;-1.00;-1.00;101154;1305;1002373;-31
2023/01/20 09:14:05;;;;;;;134.20;56.50;;;;;;;-128.00;-1.00;-1.00;101249;1305;1002691;-32
2023/01/20 09:16:31;;;;;;;130.40;57.00;;;;;;;-128.00;-1.00;-1.00;101169;1305;1003583;-31
2023/01/20 09:18:57;;;;;;;144.30;60.50;;;;;;;-128.00;-1.00;-1.00;101096;1305;1004262;-31
2023/01/20 09:21:23;;;;;;;187.10;72.90;;;;;;;-128.00;-1.00;-1.00;101096;1305;1003076;-35
2023/01/20 09:23:50;;;;;;;161.00;63.40;;;;;;;-128.00;-1.00;-1.00;101154;1302;1004864;-35
2023/01/20 09:26:15;;;;;;;182.70;72.60;;;;;;;-128.00;-1.00;-1.00;101136;1305;1002867;-30
2023/01/20 09:28:45;;;;;;;176.40;75.00;;;;;;;-128.00;-1.00;-1.00;101052;1305;1003124;-35
2023/01/20 09:31:12;;;;;;;156.30;66.70;;;;;;;-128.00;-1.00;-1.00;101107;1305;1003676;-31
2023/01/20 09:33:38;;;;;;;133.20;51.50;;;;;;;-128.00;-1.00;-1.00;101131;1305;1002742;-30
2023/01/20 09:36:05;;;;;;;132.20;56.10;;;;;;;-128.00;-1.00;-1.00;101129;1305;1004470;-30
2023/01/20 09:44:15;;;;;;;;;;;;;;;-128.00;-1.00;-1.00;101127;1305;1004487;-30
2023/01/20 09:47:18;;;;;;;;;;;;;;;-128.00;-1.00;-1.00;101094;1305;1002923;-33
2023/01/20 09:55:30;;;;;;;166.20;66.90;;;;;;;-128.00;-1.00;-1.00;101093;1302;1003682;-31
2023/01/20 09:58:04;;;;;;;165.10;64.40;;;;;;;-128.00;-1.00;-1.00;101152;1305;1003333;-36
2023/01/20 10:00:30;;;;;;;;;;;;;;;-128.00;-1.00;-1.00;101160;1302;1002768;-31
2023/01/20 10:03:00;;;;;;;186.00;72.30;;;;;;;-128.00;-1.00;-1.00;101104;1305;1003838;-32
2023/01/20 10:05:31;;;;;;;179.40;63.80;;;;;;;-128.00;-1.00;-1.00;101112;1305;1004263;-33
2023/01/20 10:08:03;;;;;;;236.90;73.00;;;;;;;-128.00;-1.00;-1.00;101204;1305;1004940;-32
2023/01/20 10:10:53;;;;;;;215.90;74.10;;;;;;;-128.00;-1.00;-1.00;101114;1301;1002397;-36
2023/01/20 10:13:22;;;;;;;187.80;75.10;;;;;;;-128.00;-1.00;-1.00;101119;1305;1003209;-34
2023/01/20 10:15:51;;;;;;;135.10;54.10;;;;;;;-128.00;-1.00;-1.00;101131;1305;1004526;-31
2023/01/20 10:18:31;;;;;;;118.30;55.00;;;;;;;-128.00;-1.00;-1.00;101110;1305;1003429;-32
2023/01/20 10:21:00;;;;;;;106.50;45.10;;;;;;;-128.00;-1.00;-1.00;101137;1305;1003112;-35
2023/01/20 10:23:50;;;;;;;103.50;46.60;;;;;;;-128.00;-1.00;-1.00;101070;1305;1003489;-35
2023/01/20 10:26:29;;;;;;;116.30;52.40;;;;;;;-128.00;-1.00;-1.00;101197;1305;1005337;-31
2023/01/20 10:28:58;;;;;;;90.10;41.30;;;;;;;-128.00;-1.00;-1.00;101134;1298;1004652;-35
2023/01/20 10:31:31;;;;;;;79.20;36.10;;;;;;;-128.00;-1.00;-1.00;101076;1305;1002919;-31
2023/01/20 10:34:03;;;;;;;98.10;42.30;;;;;;;-128.00;-1.00;-1.00;101009;1301;1002691;-35
2023/01/20 10:36:29;;;;;;;93.30;40.20;;;;;;;-128.00;-1.00;-1.00;101044;1305;1002679;-34
2023/01/20 10:39:00;;;;;;;77.90;36.00;;;;;;;-128.00;-1.00;-1.00;101042;1305;1003453;-34
2023/01/20 10:41:39;;;;;;;64.80;33.20;;;;;;;-128.00;-1.00;-1.00;101127;1305;1003793;-35
2023/01/20 10:44:10;;;;;;;69.20;27.00;;;;;;;-128.00;-1.00;-1.00;101091;1303;1004517;-35
2023/01/20 10:46:50;;;;;;;75.70;38.50;;;;;;;-128.00;-1.00;-1.00;101095;1305;1003549;-32
2023/01/20 10:49:26;;;;;;;74.50;30.70;;;;;;;-128.00;-1.00;-1.00;101130;1305;1002571;-34
2023/01/20 10:52:09;;;;;;;84.50;34.80;;;;;;;-128.00;-1.00;-1.00;101232;1305;1003558;-31
2023/01/20 10:54:58;;;;;;;93.80;36.80;;;;;;;-128.00;-1.00;-1.00;101088;1305;1003691;-34
2023/01/20 10:57:24;;;;;;;88.00;40.30;;;;;;;-128.00;-1.00;-1.00;100981;1305;1005016;-32
2023/01/20 10:59:52;;;;;;;86.70;37.40;;;;;;;-128.00;-1.00;-1.00;101037;1305;1003111;-34
2023/01/20 11:02:25;;;;;;;107.50;45.70;;;;;;;-128.00;-1.00;-1.00;101054;1305;1003089;-31
2023/01/20 11:46:37;;;;;;;37.30;16.90;;;;;;;3.40;94.20;99246.95;104606;1295;556396;-34
2023/01/20 11:49:20;;;;;;;23.50;15.50;;;;;;;2.99;92.10;99249.77;104374;1292;422886;-31
2023/01/20 11:51:52;;;;;;;78.10;27.70;;;;;;;3.04;95.56;99253.19;104480;1294;23131;-35
2023/01/20 11:54:25;;;;;;;45.30;22.10;;;;;;;2.71;90.43;99252.89;104659;1287;23184;-31
2023/01/20 11:56:58;;;;;;;36.20;17.90;;;;;;;2.50;90.51;99243.59;104657;1303;24230;-31
2023/01/20 11:59:27;;;;;;;42.00;22.90;;;;;;;2.58;94.53;99239.44;104664;1282;22688;-35
2023/01/20 12:01:59;;;;;;;31.10;16.70;;;;;;;2.47;91.85;99235.38;104752;1291;24269;-34
2023/01/20 12:04:40;;;;;;;33.00;18.00;;;;;;;2.20;89.91;99236.79;104691;1297;22509;-33
2023/01/20 12:07:10;;;;;;;27.80;15.90;;;;;;;2.03;89.88;99235.94;104675;1291;25321;-31
2023/01/20 12:09:38;;;;;;;37.70;18.60;;;;;;;2.16;91.94;99234.88;104596;1288;23133;-34
2023/01/20 12:12:06;;;;;;;31.50;18.50;;;;;;;2.19;91.83;99233.39;104491;1288;24278;-35
2023/01/20 12:14:46;;;;;;;33.90;18.60;;;;;;;2.32;93.13;99235.98;104760;1303;24429;-33
2023/01/20 12:17:18;;;;;;;33.30;17.10;;;;;;;2.26;92.82;99237.06;104638;1303;24308;-36
2023/01/20 12:20:15;;;;;;;30.40;15.90;;;;;;;2.14;92.50;99236.48;104794;1284;22746;-32
2023/01/20 12:23:05;;;;;;;40.70;19.90;;;;;;;1.95;93.42;99234.79;104558;1291;22958;-34
2023/01/20 12:25:42;;;;;;;35.60;16.90;;;;;;;1.45;93.91;99231.32;104633;1303;22829;-32
2023/01/20 12:28:26;;;;;;;32.80;17.00;;;;;;;1.78;95.45;99225.42;104562;1303;22635;-35
2023/01/20 12:30:59;;;;;;;34.50;17.80;;;;;;;2.02;96.44;99227.35;104522;1294;22521;-32
2023/01/20 12:33:28;;;;;;;33.40;17.70;;;;;;;2.11;95.79;99227.41;104780;1303;22566;-37
2023/01/20 12:36:10;;;;;;;43.90;22.30;;;;;;;2.09;93.86;99225.30;104630;1288;23040;-34
2023/01/20 12:38:46;;;;;;;55.30;22.10;;;;;;;2.00;91.47;99221.54;104544;1291;23170;-32
2023/01/20 12:41:35;;;;;;;67.30;21.40;;;;;;;2.10;92.20;99219.38;104680;1291;23144;-32